createdAt,value
2017-09-26T00:00:35.792Z,97.27
2017-09-26T00:01:35.785Z,97.37
2017-09-26T00:02:35.451Z,97.18
2017-09-26T00:03:35.445Z,96.94
2017-09-26T00:04:35.768Z,97.22
2017-09-26T00:05:35.759Z,96.98
2017-09-26T00:06:35.753Z,97.08
2017-09-26T00:07:35.743Z,97.18
2017-09-26T00:08:35.738Z,97.08
2017-09-26T00:09:35.729Z,96.94
2017-09-26T00:10:35.722Z,96.94
2017-09-26T00:11:35.714Z,97.22
2017-09-26T00:12:35.708Z,97.08
2017-09-26T00:13:35.698Z,97.13
2017-09-26T00:14:35.692Z,97.32
2017-09-26T00:15:35.683Z,97.03
2017-09-26T00:16:35.676Z,96.75
2017-09-26T00:17:35.674Z,97.22
2017-09-26T00:18:35.664Z,96.84
2017-09-26T00:19:35.652Z,96.84
2017-09-26T00:20:35.649Z,96.84
2017-09-26T00:21:35.638Z,96.94
2017-09-26T00:22:35.638Z,96.84
2017-09-26T00:23:35.628Z,96.75
2017-09-26T00:24:35.617Z,96.94
2017-09-26T00:25:35.612Z,96.84
2017-09-26T00:26:35.603Z,96.66
2017-09-26T00:27:35.596Z,96.94
2017-09-26T00:28:35.585Z,97.03
2017-09-26T00:29:35.250Z,96.66
2017-09-26T00:30:35.245Z,96.75
2017-09-26T00:31:35.563Z,96.75
2017-09-26T00:32:35.557Z,96.75
2017-09-26T00:33:35.550Z,96.84
2017-09-26T00:34:35.216Z,96.94
2017-09-26T00:35:35.531Z,96.75
2017-09-26T00:36:35.526Z,96.94
2017-09-26T00:37:35.190Z,96.94
2017-09-26T00:38:35.509Z,96.51
2017-09-26T00:39:35.503Z,96.98
2017-09-26T00:40:35.170Z,96.56
2017-09-26T00:41:35.483Z,96.66
2017-09-26T00:42:35.479Z,96.03
2017-09-26T00:43:35.471Z,96.46
2017-09-26T00:44:35.470Z,96.46
2017-09-26T00:45:35.458Z,96.37
2017-09-26T00:46:35.446Z,96.32
2017-09-26T00:47:35.439Z,96.98
2017-09-26T00:48:35.433Z,96.56
2017-09-26T00:49:35.097Z,97.03
2017-09-26T00:50:35.421Z,96.94
2017-09-26T00:51:35.409Z,96.84
2017-09-26T00:52:35.404Z,97.08
2017-09-26T00:53:35.397Z,96.84
2017-09-26T00:54:35.387Z,96.94
2017-09-26T00:55:35.381Z,96.94
2017-09-26T00:56:35.372Z,96.84
2017-09-26T00:57:35.364Z,96.75
2017-09-26T00:58:35.357Z,96.94
2017-09-26T00:59:35.352Z,96.66
2017-09-26T01:00:35.347Z,96.84
2017-09-26T01:01:35.007Z,96.94
2017-09-26T01:02:35.332Z,96.84
2017-09-26T01:03:35.322Z,96.84
2017-09-26T01:04:34.983Z,96.75
2017-09-26T01:05:35.303Z,96.84
2017-09-26T01:06:35.295Z,96.94
2017-09-26T01:07:35.287Z,96.94
2017-09-26T01:08:35.281Z,96.94
2017-09-26T01:09:35.275Z,96.84
2017-09-26T01:10:35.268Z,96.84
2017-09-26T01:11:35.256Z,97.03
2017-09-26T01:12:35.251Z,96.56
2017-09-26T01:13:35.245Z,96.56
2017-09-26T01:14:35.240Z,97.08
2017-09-26T01:15:35.227Z,96.27
2017-09-26T01:16:35.223Z,96.42
2017-09-26T01:17:35.210Z,96.13
2017-09-26T01:18:34.876Z,96.32
2017-09-26T01:19:35.198Z,96.56
2017-09-26T01:20:35.189Z,96.7
2017-09-26T01:21:35.181Z,96.66
2017-09-26T01:22:35.176Z,96.56
2017-09-26T01:23:35.166Z,96.61
2017-09-26T01:24:35.156Z,96.66
2017-09-26T01:25:35.151Z,96.22
2017-09-26T01:26:35.143Z,96.03
2017-09-26T01:27:35.135Z,96.22
2017-09-26T01:28:35.130Z,96.66
2017-09-26T01:29:34.795Z,96.42
2017-09-26T01:30:35.112Z,96.61
2017-09-26T01:31:35.104Z,96.42
2017-09-26T01:32:35.097Z,96.42
2017-09-26T01:33:35.092Z,96.61
2017-09-26T01:34:35.081Z,96.51
2017-09-26T01:35:35.073Z,96.61
2017-09-26T01:36:35.067Z,96.61
2017-09-26T01:37:35.057Z,96.61
2017-09-26T01:38:35.056Z,96.42
2017-09-26T01:39:35.043Z,96.13
2017-09-26T01:40:34.709Z,96.03
2017-09-26T01:41:35.032Z,96.03
2017-09-26T01:42:35.022Z,96.13
2017-09-26T01:43:35.012Z,96.03
2017-09-26T01:44:34.681Z,95.94
2017-09-26T01:45:34.999Z,96.13
2017-09-26T01:46:34.665Z,96.03
2017-09-26T01:47:34.988Z,96.03
2017-09-26T01:48:34.976Z,96.03
2017-09-26T01:49:34.973Z,96.32
2017-09-26T01:50:34.966Z,96.13
2017-09-26T01:51:34.959Z,96.13
2017-09-26T01:52:34.946Z,96.13
2017-09-26T01:53:34.939Z,96.13
2017-09-26T01:54:34.931Z,96.22
2017-09-26T01:55:34.928Z,96.22
2017-09-26T01:56:34.590Z,96.42
2017-09-26T01:57:34.586Z,96.22
2017-09-26T01:58:34.905Z,96.22
2017-09-26T01:59:34.894Z,96.42
2017-09-26T02:00:34.893Z,96.32
2017-09-26T02:01:34.884Z,96.13
2017-09-26T02:02:34.878Z,96.42
2017-09-26T02:03:34.865Z,96.42
2017-09-26T02:04:34.861Z,96.42
2017-09-26T02:05:34.852Z,96.22
2017-09-26T02:06:34.844Z,96.42
2017-09-26T02:07:34.512Z,96.32
2017-09-26T02:08:34.832Z,96.42
2017-09-26T02:09:34.826Z,96.32
2017-09-26T02:10:34.490Z,96.37
2017-09-26T02:11:34.809Z,96.32
2017-09-26T02:12:34.799Z,96.32
2017-09-26T02:13:34.793Z,96.32
2017-09-26T02:14:34.787Z,96.22
2017-09-26T02:15:34.781Z,96.22
2017-09-26T02:16:34.445Z,96.22
2017-09-26T02:17:34.766Z,96.46
2017-09-26T02:18:34.755Z,95.56
2017-09-26T02:19:34.749Z,96.37
2017-09-26T02:20:34.744Z,96.51
2017-09-26T02:21:34.732Z,95.51
2017-09-26T02:22:34.401Z,96.17
2017-09-26T02:23:34.720Z,95.79
2017-09-26T02:24:34.712Z,95.79
2017-09-26T02:25:34.703Z,95.98
2017-09-26T02:26:34.699Z,95.79
2017-09-26T02:27:34.693Z,95.89
2017-09-26T02:28:34.684Z,95.79
2017-09-26T02:29:34.678Z,95.89
2017-09-26T02:30:34.668Z,95.89
2017-09-26T02:31:34.660Z,95.98
2017-09-26T02:32:34.657Z,95.89
2017-09-26T02:33:34.645Z,95.89
2017-09-26T02:34:34.313Z,96.08
2017-09-26T02:35:34.635Z,95.89
2017-09-26T02:36:34.625Z,96.08
2017-09-26T02:37:34.920Z,96.08
2017-09-26T02:38:34.612Z,95.89
2017-09-26T02:39:34.605Z,95.89
2017-09-26T02:40:34.601Z,95.89
2017-09-26T02:41:34.590Z,95.98
2017-09-26T02:42:34.592Z,95.89
2017-09-26T02:43:34.577Z,95.89
2017-09-26T02:44:34.617Z,95.89
2017-09-26T02:45:34.563Z,96.08
2017-09-26T02:46:34.561Z,95.79
2017-09-26T02:47:34.550Z,95.89
2017-09-26T02:48:34.540Z,96.08
2017-09-26T02:49:34.567Z,95.65
2017-09-26T02:50:34.526Z,95.94
2017-09-26T02:51:34.517Z,95.75
2017-09-26T02:52:34.513Z,95.51
2017-09-26T02:53:34.503Z,95.56
2017-09-26T02:54:34.499Z,95.56
2017-09-26T02:55:34.491Z,95.46
2017-09-26T02:56:34.487Z,95.65
2017-09-26T02:57:34.485Z,95.56
2017-09-26T02:58:34.471Z,95.56
2017-09-26T02:59:34.462Z,95.94
2017-09-26T03:00:34.456Z,95.46
2017-09-26T03:01:34.448Z,95.46
2017-09-26T03:02:34.453Z,95.75
2017-09-26T03:03:34.439Z,95.36
2017-09-26T03:04:34.428Z,95.75
2017-09-26T03:05:34.424Z,95.75
2017-09-26T03:06:34.417Z,95.75
2017-09-26T03:07:34.408Z,95.75
2017-09-26T03:08:34.401Z,95.75
2017-09-26T03:09:34.394Z,95.36
2017-09-26T03:10:34.387Z,95.75
2017-09-26T03:11:34.381Z,95.75
2017-09-26T03:12:34.375Z,95.75
2017-09-26T03:13:34.367Z,95.75
2017-09-26T03:14:34.359Z,95.75
2017-09-26T03:15:34.354Z,95.75
2017-09-26T03:16:34.349Z,95.75
2017-09-26T03:17:34.013Z,95.65
2017-09-26T03:18:34.336Z,95.75
2017-09-26T03:19:34.326Z,95.75
2017-09-26T03:20:34.317Z,95.75
2017-09-26T03:21:34.310Z,95.75
2017-09-26T03:22:34.304Z,95.75
2017-09-26T03:23:34.297Z,95.75
2017-09-26T03:24:34.297Z,95.75
2017-09-26T03:25:33.957Z,95.75
2017-09-26T03:26:34.277Z,95.75
2017-09-26T03:27:33.943Z,95.75
2017-09-26T03:28:34.265Z,95.75
2017-09-26T03:29:34.255Z,95.75
2017-09-26T03:30:34.255Z,95.75
2017-09-26T03:31:34.243Z,95.75
2017-09-26T03:32:34.238Z,95.75
2017-09-26T03:33:34.236Z,95.79
2017-09-26T03:34:34.224Z,95.65
2017-09-26T03:35:34.218Z,95.94
2017-09-26T03:36:34.208Z,95.79
2017-09-26T03:37:33.875Z,95.98
2017-09-26T03:38:34.203Z,95.94
2017-09-26T03:39:34.193Z,95.98
2017-09-26T03:40:34.181Z,95.89
2017-09-26T03:41:34.173Z,95.98
2017-09-26T03:42:34.170Z,95.65
2017-09-26T03:43:34.164Z,95.65
2017-09-26T03:44:34.155Z,95.75
2017-09-26T03:45:34.150Z,95.65
2017-09-26T03:46:34.140Z,95.94
2017-09-26T03:47:34.135Z,95.94
2017-09-26T03:48:34.130Z,95.79
2017-09-26T03:49:34.120Z,95.79
2017-09-26T03:50:34.114Z,95.79
2017-09-26T03:51:34.108Z,95.79
2017-09-26T03:52:34.100Z,95.75
2017-09-26T03:53:34.098Z,95.79
2017-09-26T03:54:34.090Z,95.7
2017-09-26T03:55:34.081Z,95.79
2017-09-26T03:56:34.075Z,95.79
2017-09-26T03:57:34.066Z,95.79
2017-09-26T03:58:34.061Z,95.61
2017-09-26T03:59:34.055Z,95.79
2017-09-26T04:00:34.047Z,95.61
2017-09-26T04:01:34.044Z,95.79
2017-09-26T04:02:33.705Z,95.51
2017-09-26T04:03:34.030Z,95.7
2017-09-26T04:04:34.021Z,95.98
2017-09-26T04:05:34.012Z,95.51
2017-09-26T04:06:34.008Z,95.61
2017-09-26T04:07:34.002Z,95.7
2017-09-26T04:08:34.001Z,95.79
2017-09-26T04:09:33.659Z,95.51
2017-09-26T04:10:33.981Z,95.51
2017-09-26T04:11:33.974Z,95.98
2017-09-26T04:12:33.966Z,95.7
2017-09-26T04:13:33.961Z,95.46
2017-09-26T04:14:33.957Z,95.61
2017-09-26T04:15:33.949Z,95.98
2017-09-26T04:16:33.938Z,95.61
2017-09-26T04:17:33.934Z,95.7
2017-09-26T04:18:33.600Z,95.61
2017-09-26T04:19:33.923Z,95.51
2017-09-26T04:20:33.912Z,95.61
2017-09-26T04:21:33.916Z,95.7
2017-09-26T04:22:33.900Z,95.51
2017-09-26T04:23:33.892Z,95.79
2017-09-26T04:24:33.561Z,95.51
2017-09-26T04:25:33.880Z,95.98
2017-09-26T04:26:33.878Z,95.7
2017-09-26T04:27:33.867Z,95.7
2017-09-26T04:28:33.866Z,95.51
2017-09-26T04:29:33.855Z,95.79
2017-09-26T04:30:33.521Z,95.79
2017-09-26T04:31:33.840Z,95.98
2017-09-26T04:32:33.834Z,95.7
2017-09-26T04:33:33.501Z,95.98
2017-09-26T04:34:33.828Z,95.7
2017-09-26T04:35:33.815Z,95.41
2017-09-26T04:36:33.481Z,95.98
2017-09-26T04:37:33.799Z,95.79
2017-09-26T04:38:33.796Z,95.79
2017-09-26T04:39:33.459Z,95.98
2017-09-26T04:40:33.456Z,95.51
2017-09-26T04:41:33.777Z,95.51
2017-09-26T04:42:33.766Z,95.7
2017-09-26T04:43:33.765Z,95.89
2017-09-26T04:44:33.755Z,95.61
2017-09-26T04:45:33.748Z,95.61
2017-09-26T04:46:33.745Z,95.7
2017-09-26T04:47:33.736Z,95.98
2017-09-26T04:48:33.731Z,95.98
2017-09-26T04:49:33.724Z,95.51
2017-09-26T04:50:33.716Z,95.98
2017-09-26T04:51:33.713Z,95.51
2017-09-26T04:52:33.702Z,95.61
2017-09-26T04:53:33.693Z,95.41
2017-09-26T04:54:33.692Z,95.79
2017-09-26T04:55:33.686Z,95.79
2017-09-26T04:56:33.679Z,95.79
2017-09-26T04:57:33.342Z,95.79
2017-09-26T04:58:33.665Z,95.79
2017-09-26T04:59:33.329Z,95.79
2017-09-26T05:00:33.649Z,95.79
2017-09-26T05:01:33.645Z,95.98
2017-09-26T05:02:33.638Z,95.61
2017-09-26T05:03:33.595Z,95.61
2017-09-26T05:04:33.268Z,95.7
2017-09-26T05:05:33.578Z,95.51
2017-09-26T05:06:33.572Z,95.41
2017-09-26T05:07:33.570Z,95.51
2017-09-26T05:08:33.562Z,95.61
2017-09-26T05:09:33.553Z,95.51
2017-09-26T05:10:33.553Z,95.79
2017-09-26T05:11:33.540Z,95.79
2017-09-26T05:12:33.537Z,95.84
2017-09-26T05:13:33.528Z,95.79
2017-09-26T05:14:33.525Z,95.7
2017-09-26T05:15:33.524Z,95.7
2017-09-26T05:16:33.510Z,95.51
2017-09-26T05:17:33.185Z,95.79
2017-09-26T05:18:33.499Z,95.98
2017-09-26T05:19:33.492Z,96.08
2017-09-26T05:20:33.484Z,96.08
2017-09-26T05:21:33.483Z,95.98
2017-09-26T05:22:33.473Z,95.98
2017-09-26T05:23:33.466Z,95.98
2017-09-26T05:24:33.457Z,96.18
2017-09-26T05:25:33.450Z,95.89
2017-09-26T05:26:33.446Z,95.98
2017-09-26T05:27:33.440Z,96.08
2017-09-26T05:28:33.435Z,96.08
2017-09-26T05:29:33.432Z,95.98
2017-09-26T05:30:33.418Z,96.08
2017-09-26T05:31:33.443Z,95.79
2017-09-26T05:32:33.408Z,96.18
2017-09-26T05:33:33.398Z,96.18
2017-09-26T05:34:33.393Z,96.08
2017-09-26T05:35:33.385Z,96.18
2017-09-26T05:36:33.381Z,96.18
2017-09-26T05:37:33.376Z,95.98
2017-09-26T05:38:33.365Z,95.98
2017-09-26T05:39:33.360Z,96.18
2017-09-26T05:40:33.356Z,95.98
2017-09-26T05:41:33.027Z,96.08
2017-09-26T05:42:33.341Z,95.7
2017-09-26T05:43:33.336Z,95.98
2017-09-26T05:44:33.007Z,96.18
2017-09-26T05:45:33.004Z,95.98
2017-09-26T05:46:33.324Z,96.18
2017-09-26T05:47:33.308Z,96.13
2017-09-26T05:48:33.302Z,96.18
2017-09-26T05:49:32.980Z,96.08
2017-09-26T05:50:33.292Z,96.13
2017-09-26T05:51:32.965Z,95.98
2017-09-26T05:52:33.278Z,95.89
2017-09-26T05:53:33.270Z,96.18
2017-09-26T05:54:33.266Z,96.13
2017-09-26T05:55:33.260Z,96.08
2017-09-26T05:56:33.251Z,95.98
2017-09-26T05:57:33.248Z,96.03
2017-09-26T05:58:32.921Z,95.94
2017-09-26T05:59:33.235Z,96.22
2017-09-26T06:00:33.226Z,95.65
2017-09-26T06:01:33.217Z,95.65
2017-09-26T06:02:33.214Z,95.75
2017-09-26T06:03:32.891Z,95.84
2017-09-26T06:04:33.200Z,95.56
2017-09-26T06:05:33.198Z,95.75
2017-09-26T06:06:33.189Z,95.94
2017-09-26T06:07:33.181Z,96.03
2017-09-26T06:08:33.177Z,95.65
2017-09-26T06:09:33.170Z,95.65
2017-09-26T06:10:33.169Z,95.56
2017-09-26T06:11:32.839Z,95.84
2017-09-26T06:12:32.833Z,95.56
2017-09-26T06:13:32.828Z,95.46
2017-09-26T06:14:32.823Z,95.75
2017-09-26T06:15:33.132Z,95.75
2017-09-26T06:16:32.807Z,95.84
2017-09-26T06:17:32.800Z,95.84
2017-09-26T06:18:32.795Z,95.56
2017-09-26T06:19:33.113Z,95.84
2017-09-26T06:20:32.781Z,96.03
2017-09-26T06:21:32.776Z,95.84
2017-09-26T06:22:32.770Z,96.03
2017-09-26T06:23:32.766Z,95.75
2017-09-26T06:24:33.077Z,95.56
2017-09-26T06:25:33.069Z,95.84
2017-09-26T06:26:32.748Z,96.03
2017-09-26T06:27:32.740Z,95.89
2017-09-26T06:28:33.058Z,95.79
2017-09-26T06:29:33.057Z,95.7
2017-09-26T06:30:32.721Z,95.89
2017-09-26T06:31:33.035Z,95.89
2017-09-26T06:32:33.029Z,95.7
2017-09-26T06:33:33.024Z,96.37
2017-09-26T06:34:33.027Z,96.18
2017-09-26T06:35:33.014Z,96.08
2017-09-26T06:36:33.007Z,96.08
2017-09-26T06:37:33.003Z,96.03
2017-09-26T06:38:32.996Z,96.27
2017-09-26T06:39:32.667Z,96.08
2017-09-26T06:40:32.983Z,95.7
2017-09-26T06:41:32.980Z,95.61
2017-09-26T06:42:32.971Z,95.79
2017-09-26T06:43:32.969Z,95.7
2017-09-26T06:44:32.958Z,96.08
2017-09-26T06:45:32.951Z,96.18
2017-09-26T06:46:32.949Z,95.7
2017-09-26T06:47:32.945Z,95.79
2017-09-26T06:48:32.934Z,95.89
2017-09-26T06:49:32.939Z,95.89
2017-09-26T06:50:32.606Z,95.89
2017-09-26T06:51:32.918Z,96.18
2017-09-26T06:52:32.593Z,95.98
2017-09-26T06:53:32.908Z,95.36
2017-09-26T06:54:32.908Z,95.51
2017-09-26T06:55:32.900Z,95.56
2017-09-26T06:56:32.889Z,95.07
2017-09-26T06:57:32.887Z,95.56
2017-09-26T06:58:32.877Z,95.27
2017-09-26T06:59:32.871Z,95.65
2017-09-26T07:00:32.868Z,95.75
2017-09-26T07:01:32.540Z,95.94
2017-09-26T07:02:32.857Z,96.13
2017-09-26T07:03:32.855Z,95.84
2017-09-26T07:04:32.847Z,96.13
2017-09-26T07:05:32.838Z,96.13
2017-09-26T07:06:32.836Z,96.13
2017-09-26T07:07:32.829Z,95.84
2017-09-26T07:08:32.825Z,95.84
2017-09-26T07:09:32.826Z,95.75
2017-09-26T07:10:32.813Z,96.7
2017-09-26T07:11:32.809Z,96.13
2017-09-26T07:12:32.801Z,96.61
2017-09-26T07:13:32.474Z,96.22
2017-09-26T07:14:32.791Z,95.94
2017-09-26T07:15:32.786Z,95.89
2017-09-26T07:16:32.782Z,96.03
2017-09-26T07:17:32.775Z,96.42
2017-09-26T07:18:32.770Z,96.13
2017-09-26T07:19:32.760Z,95.84
2017-09-26T07:20:32.756Z,96.32
2017-09-26T07:21:32.751Z,96.32
2017-09-26T07:22:32.748Z,96.32
2017-09-26T07:23:32.739Z,96.22
2017-09-26T07:24:32.737Z,96.22
2017-09-26T07:25:32.414Z,96.22
2017-09-26T07:26:32.723Z,96.13
2017-09-26T07:27:32.729Z,96.32
2017-09-26T07:28:32.713Z,96.22
2017-09-26T07:29:32.708Z,96.51
2017-09-26T07:30:32.705Z,95.84
2017-09-26T07:31:32.696Z,96.32
2017-09-26T07:32:32.375Z,96.42
2017-09-26T07:33:32.689Z,96.32
2017-09-26T07:34:32.680Z,96.27
2017-09-26T07:35:32.675Z,95.79
2017-09-26T07:36:32.672Z,95.7
2017-09-26T07:37:32.672Z,95.89
2017-09-26T07:38:32.341Z,96.27
2017-09-26T07:39:32.655Z,95.89
2017-09-26T07:40:32.653Z,95.79
2017-09-26T07:41:32.326Z,95.98
2017-09-26T07:42:32.322Z,95.79
2017-09-26T07:43:32.638Z,95.6
2017-09-26T07:44:32.310Z,95.26
2017-09-26T07:45:32.627Z,95.56
2017-09-26T07:46:32.620Z,95.75
2017-09-26T07:47:32.616Z,95.75
2017-09-26T07:48:32.610Z,95.36
2017-09-26T07:49:32.605Z,95.75
2017-09-26T07:50:32.606Z,95.94
2017-09-26T07:51:32.594Z,95.75
2017-09-26T07:52:32.273Z,95.75
2017-09-26T07:53:32.269Z,95.46
2017-09-26T07:54:32.583Z,95.65
2017-09-26T07:55:32.259Z,95.17
2017-09-26T07:56:32.603Z,96.27
2017-09-26T07:57:32.574Z,96.61
2017-09-26T07:58:32.569Z,96.99
2017-09-26T07:59:32.562Z,96.51
2017-09-26T08:00:32.554Z,96.13
2017-09-26T08:01:32.551Z,96.51
2017-09-26T08:02:32.547Z,96.22
2017-09-26T08:03:32.543Z,96.18
2017-09-26T08:04:32.539Z,95.79
2017-09-26T08:05:32.532Z,95.79
2017-09-26T08:06:32.528Z,95.51
2017-09-26T08:07:32.528Z,95.51
2017-09-26T08:08:32.519Z,95.41
2017-09-26T08:09:32.513Z,95.55
2017-09-26T08:10:32.547Z,95.75
2017-09-26T08:11:32.508Z,95.55
2017-09-26T08:12:32.506Z,95.75
2017-09-26T08:13:32.501Z,95.94
2017-09-26T08:14:32.494Z,95.46
2017-09-26T08:15:32.491Z,95.75
2017-09-26T08:16:32.490Z,95.46
2017-09-26T08:17:32.481Z,95.65
2017-09-26T08:18:32.479Z,95.17
2017-09-26T08:19:32.474Z,95.03
2017-09-26T08:20:32.474Z,95.12
2017-09-26T08:21:32.469Z,95.03
2017-09-26T08:22:32.463Z,95.03
2017-09-26T08:23:32.462Z,94.74
2017-09-26T08:24:32.457Z,94.64
2017-09-26T08:25:32.455Z,95.12
2017-09-26T08:26:32.128Z,95.03
2017-09-26T08:27:32.442Z,95.12
2017-09-26T08:28:32.446Z,95.07
2017-09-26T08:29:32.117Z,95.5
2017-09-26T08:30:32.363Z,95.17
2017-09-26T08:31:32.111Z,96.03
2017-09-26T08:32:32.107Z,95.75
2017-09-26T08:33:32.422Z,95.79
2017-09-26T08:34:32.419Z,95.7
2017-09-26T08:35:32.414Z,95.94
2017-09-26T08:36:32.410Z,95.17
2017-09-26T08:37:32.406Z,95.75
2017-09-26T08:38:32.086Z,95.17
2017-09-26T08:39:32.402Z,95.26
2017-09-26T08:40:32.399Z,95.75
2017-09-26T08:41:32.077Z,95.84
2017-09-26T08:42:32.389Z,95.65
2017-09-26T08:43:32.384Z,95.84
2017-09-26T08:44:32.062Z,95.75
2017-09-26T08:45:32.380Z,95.79
2017-09-26T08:46:32.377Z,95.79
2017-09-26T08:47:32.052Z,95.45
2017-09-26T08:48:32.374Z,95.84
2017-09-26T08:49:32.368Z,95.7
2017-09-26T08:50:32.364Z,95.6
2017-09-26T08:51:32.367Z,95.7
2017-09-26T08:52:32.038Z,95.79
2017-09-26T08:53:32.036Z,95.4
2017-09-26T08:54:32.356Z,95.79
2017-09-26T08:55:32.349Z,96.08
2017-09-26T08:56:32.024Z,95.98
2017-09-26T08:57:32.342Z,96.27
2017-09-26T08:58:32.339Z,95.89
2017-09-26T08:59:32.018Z,95.55
2017-09-26T09:00:32.333Z,95.79
2017-09-26T09:01:32.582Z,95.89
2017-09-26T09:02:32.325Z,96.03
2017-09-26T09:03:32.324Z,95.84
2017-09-26T09:04:32.320Z,95.55
2017-09-26T09:05:32.321Z,95.55
2017-09-26T09:06:33.114Z,96.17
2017-09-26T09:07:32.310Z,95.21
2017-09-26T09:08:32.312Z,94.92
2017-09-26T09:09:32.308Z,95.6
2017-09-26T09:10:32.304Z,95.89
2017-09-26T09:11:32.302Z,95.98
2017-09-26T09:12:32.299Z,95.98
2017-09-26T09:13:32.528Z,95.79
2017-09-26T09:14:32.295Z,96.08
2017-09-26T09:15:32.292Z,96.08
2017-09-26T09:16:32.292Z,96.17
2017-09-26T09:17:32.285Z,96.42
2017-09-26T09:18:32.285Z,96.56
2017-09-26T09:19:32.284Z,95.89
2017-09-26T09:20:32.281Z,96.08
2017-09-26T09:21:31.961Z,96.37
2017-09-26T09:22:32.276Z,96.32
2017-09-26T09:23:32.274Z,95.79
2017-09-26T09:24:32.274Z,95.89
2017-09-26T09:25:32.493Z,96.56
2017-09-26T09:26:32.273Z,96.56
2017-09-26T09:27:32.320Z,95.89
2017-09-26T09:28:32.264Z,95.89
2017-09-26T09:29:32.468Z,96.37
2017-09-26T09:30:32.488Z,96.03
2017-09-26T09:31:32.260Z,96.99
2017-09-26T09:32:32.188Z,96.17
2017-09-26T09:33:32.291Z,96.08
2017-09-26T09:34:32.254Z,96.27
2017-09-26T09:35:32.248Z,96.17
2017-09-26T09:36:32.253Z,95.89
2017-09-26T09:37:32.250Z,96.32
2017-09-26T09:38:32.252Z,96.12
2017-09-26T09:39:32.242Z,96.89
2017-09-26T09:40:32.246Z,96.32
2017-09-26T09:41:32.554Z,96.08
2017-09-26T09:42:32.236Z,96.08
2017-09-26T09:43:32.243Z,96.08
2017-09-26T09:44:31.916Z,95.6
2017-09-26T09:45:32.231Z,95.74
2017-09-26T09:46:32.241Z,95.74
2017-09-26T09:47:32.233Z,95.84
2017-09-26T09:48:32.231Z,95.84
2017-09-26T09:49:31.911Z,96.12
2017-09-26T09:50:31.906Z,95.94
2017-09-26T09:51:32.225Z,95.12
2017-09-26T09:52:32.223Z,95.98
2017-09-26T09:53:32.220Z,95.98
2017-09-26T09:54:31.898Z,96.46
2017-09-26T09:55:31.901Z,95.5
2017-09-26T09:56:32.219Z,96.46
2017-09-26T09:57:32.217Z,95.55
2017-09-26T09:58:32.213Z,96.42
2017-09-26T09:59:32.213Z,96.99
2017-09-26T10:00:32.219Z,96.51
2017-09-26T10:01:32.207Z,96.61
2017-09-26T10:02:31.888Z,96.03
2017-09-26T10:03:32.452Z,96.12
2017-09-26T10:04:32.202Z,95.36
2017-09-26T10:05:31.880Z,96.42
2017-09-26T10:06:32.199Z,96.12
2017-09-26T10:07:32.194Z,95.36
2017-09-26T10:08:32.195Z,96.12
2017-09-26T10:09:32.203Z,96.85
2017-09-26T10:10:32.191Z,96.99
2017-09-26T10:11:32.188Z,96.99
2017-09-26T10:12:32.189Z,96.61
2017-09-26T10:13:32.186Z,96.51
2017-09-26T10:14:32.184Z,96.61
2017-09-26T10:15:32.202Z,96.46
2017-09-26T10:16:32.182Z,96.66
2017-09-26T10:17:32.181Z,95.98
2017-09-26T10:18:32.176Z,95.31
2017-09-26T10:19:32.178Z,96.17
2017-09-26T10:20:32.174Z,95.98
2017-09-26T10:21:32.171Z,96.56
2017-09-26T10:22:32.171Z,96.32
2017-09-26T10:23:32.176Z,96.51
2017-09-26T10:24:32.165Z,96.22
2017-09-26T10:25:32.165Z,96.42
2017-09-26T10:26:32.163Z,95.45
2017-09-26T10:27:32.167Z,96.7
2017-09-26T10:28:32.161Z,95.45
2017-09-26T10:29:32.159Z,96.61
2017-09-26T10:30:32.158Z,95.94
2017-09-26T10:31:32.155Z,96.61
2017-09-26T10:32:32.161Z,96.51
2017-09-26T10:33:32.154Z,96.12
2017-09-26T10:34:32.154Z,95.94
2017-09-26T10:35:32.151Z,94.87
2017-09-26T10:36:32.150Z,95.74
2017-09-26T10:37:32.151Z,95.12
2017-09-26T10:38:31.827Z,96.27
2017-09-26T10:39:32.148Z,96.17
2017-09-26T10:40:31.824Z,95.6
2017-09-26T10:41:32.142Z,95.31
2017-09-26T10:42:31.825Z,95.65
2017-09-26T10:43:32.144Z,96.42
2017-09-26T10:44:32.138Z,96.89
2017-09-26T10:45:32.140Z,96.61
2017-09-26T10:46:32.137Z,97.38
2017-09-26T10:47:32.135Z,96.51
2017-09-26T10:48:32.131Z,96.7
2017-09-26T10:49:31.812Z,95.74
2017-09-26T10:50:31.809Z,96.12
2017-09-26T10:51:32.125Z,95.55
2017-09-26T10:52:32.125Z,95.98
2017-09-26T10:53:32.124Z,96.37
2017-09-26T10:54:32.125Z,96.89
2017-09-26T10:55:32.117Z,96.94
2017-09-26T10:56:31.795Z,96.85
2017-09-26T10:57:31.792Z,96.56
2017-09-26T10:58:32.111Z,97.19
2017-09-26T10:59:32.107Z,96.89
2017-09-26T11:00:32.109Z,97.38
2017-09-26T11:01:32.107Z,96.42
2017-09-26T11:02:31.781Z,96.8
2017-09-26T11:03:31.778Z,97.28
2017-09-26T11:04:32.099Z,96.42
2017-09-26T11:05:32.097Z,96.61
2017-09-26T11:06:32.091Z,96.99
2017-09-26T11:07:32.091Z,97.19
2017-09-26T11:08:32.089Z,96.89
2017-09-26T11:09:32.086Z,96.61
2017-09-26T11:10:32.086Z,95.65
2017-09-26T11:11:32.086Z,95.84
2017-09-26T11:12:32.081Z,96.42
2017-09-26T11:13:32.081Z,95.65
2017-09-26T11:14:32.078Z,96.42
2017-09-26T11:15:32.077Z,96.03
2017-09-26T11:16:32.074Z,96.99
2017-09-26T11:17:31.754Z,96.8
2017-09-26T11:18:32.072Z,96.42
2017-09-26T11:19:32.067Z,96.89
2017-09-26T11:20:31.744Z,96.7
2017-09-26T11:21:32.063Z,97.09
2017-09-26T11:22:32.060Z,96.32
2017-09-26T11:23:32.063Z,95.74
2017-09-26T11:24:32.057Z,96.89
2017-09-26T11:25:32.062Z,95.94
2017-09-26T11:26:31.737Z,96.03
2017-09-26T11:27:32.055Z,96.61
2017-09-26T11:28:32.050Z,96.8
2017-09-26T11:29:32.047Z,96.61
2017-09-26T11:30:32.048Z,96.7
2017-09-26T11:31:32.046Z,96.7
2017-09-26T11:32:32.041Z,95.45
2017-09-26T11:33:31.727Z,96.12
2017-09-26T11:34:32.041Z,96.99
2017-09-26T11:35:32.040Z,96.32
2017-09-26T11:36:32.033Z,96.22
2017-09-26T11:37:32.032Z,95.17
2017-09-26T11:38:32.030Z,96.22
2017-09-26T11:39:32.030Z,96.42
2017-09-26T11:40:32.028Z,96.42
2017-09-26T11:41:32.025Z,95.65
2017-09-26T11:42:32.021Z,96.61
2017-09-26T11:43:32.020Z,96.42
2017-09-26T11:44:32.018Z,95.07
2017-09-26T11:45:31.697Z,94.59
2017-09-26T11:46:32.015Z,95.65
2017-09-26T11:47:32.014Z,96.46
2017-09-26T11:48:31.692Z,96.89
2017-09-26T11:49:32.009Z,96.85
2017-09-26T11:50:31.690Z,96.85
2017-09-26T11:51:32.006Z,97.14
2017-09-26T11:52:32.004Z,95.69
2017-09-26T11:53:32.002Z,95.5
2017-09-26T11:54:32.010Z,95.4
2017-09-26T11:55:31.998Z,94.59
2017-09-26T11:56:31.679Z,96.22
2017-09-26T11:57:31.997Z,96.8
2017-09-26T11:58:31.996Z,96.42
2017-09-26T11:59:31.996Z,96.8
2017-09-26T12:00:31.674Z,96.8
2017-09-26T12:01:31.995Z,97.09
2017-09-26T12:02:31.988Z,96.75
2017-09-26T12:03:31.993Z,96.66
2017-09-26T12:04:31.991Z,95.98
2017-09-26T12:05:31.984Z,95.69
2017-09-26T12:06:31.987Z,96.17
2017-09-26T12:07:31.985Z,96.17
2017-09-26T12:08:31.981Z,96.08
2017-09-26T12:09:31.987Z,95.4
2017-09-26T12:10:31.981Z,95.21
2017-09-26T12:11:31.982Z,94.58
2017-09-26T12:12:31.660Z,94.1
2017-09-26T12:13:31.984Z,94.39
2017-09-26T12:14:31.978Z,94
2017-09-26T12:15:31.657Z,95.36
2017-09-26T12:16:31.975Z,93.04
2017-09-26T12:17:31.905Z,93.52
2017-09-26T12:18:31.977Z,94
2017-09-26T12:19:31.977Z,94.87
2017-09-26T12:20:31.977Z,92.85
2017-09-26T12:21:31.980Z,95.36
2017-09-26T12:22:31.982Z,95.16
2017-09-26T12:23:31.656Z,94.78
2017-09-26T12:24:31.978Z,93.52
2017-09-26T12:25:31.656Z,94.48
2017-09-26T12:26:31.656Z,93.33
2017-09-26T12:27:31.978Z,94.48
2017-09-26T12:28:31.976Z,94.87
2017-09-26T12:29:31.979Z,93.62
2017-09-26T12:30:31.977Z,94.29
2017-09-26T12:31:31.981Z,95.64
2017-09-26T12:32:31.976Z,94.78
2017-09-26T12:33:31.983Z,94.87
2017-09-26T12:34:31.974Z,95.84
2017-09-26T12:35:31.983Z,96.17
2017-09-26T12:36:31.984Z,96.66
2017-09-26T12:37:31.985Z,94.92
2017-09-26T12:38:31.979Z,95.74
2017-09-26T12:39:32.230Z,94.87
2017-09-26T12:40:31.979Z,95.06
2017-09-26T12:41:31.980Z,95.83
2017-09-26T12:42:31.982Z,95.45
2017-09-26T12:43:31.984Z,97.09
2017-09-26T12:44:31.981Z,93.32
2017-09-26T12:45:31.659Z,94.29
2017-09-26T12:46:31.980Z,94.38
2017-09-26T12:47:31.660Z,93.13
2017-09-26T12:48:31.984Z,94.24
2017-09-26T12:49:31.982Z,94.92
2017-09-26T12:50:31.981Z,95.88
2017-09-26T12:51:31.981Z,96.61
2017-09-26T12:52:31.981Z,95.88
2017-09-26T12:53:31.983Z,94.43
2017-09-26T12:54:31.980Z,94.39